Time;durP1;ratioP1;P1;durP2;ratioP2;P2;SDS_P1;SDS_P2;PMS_P1;PMS_P2;Temp;Humidity;BMP_temperature;BMP_pressure;BME280_temperature;BME280_humidity;BME280_pressure;Samples;Min_cycle;Max_cycle;Signal;HPM_P1;HPM_P2
2022/04/11 00:02:06;;;;;;;2.97;1.20;;;3.60;99.90;;;;;;5014703;28;20045;-70
2022/04/11 00:04:32;;;;;;;3.60;1.15;;;3.60;99.90;;;;;;5000130;28;20055;-71
2022/04/11 00:06:57;;;;;;;2.28;1.17;;;3.50;99.90;;;;;;4995291;28;20034;-70
2022/04/11 00:09:23;;;;;;;6.18;1.05;;;3.50;99.90;;;;;;5016660;28;20042;-70
2022/04/11 00:11:48;;;;;;;2.20;0.90;;;3.50;99.90;;;;;;5015825;28;20037;-70
2022/04/11 00:14:14;;;;;;;1.80;1.00;;;3.50;99.90;;;;;;5000242;28;20504;-70
2022/04/11 00:16:40;;;;;;;1.58;1.10;;;3.50;99.90;;;;;;5015260;28;20045;-70
2022/04/11 00:19:06;;;;;;;6.65;1.45;;;3.50;99.90;;;;;;5000050;28;20510;-71
2022/04/11 00:21:32;;;;;;;2.70;1.10;;;3.40;99.90;;;;;;4994535;28;20042;-70
2022/04/11 00:23:57;;;;;;;2.75;1.02;;;3.40;99.90;;;;;;4996155;28;20064;-70
2022/04/11 00:26:23;;;;;;;3.08;1.20;;;3.40;99.90;;;;;;4991454;28;20065;-70
2022/04/11 00:28:49;;;;;;;1.83;0.98;;;3.40;99.90;;;;;;5015978;28;20049;-71
2022/04/11 00:31:14;;;;;;;2.60;1.00;;;3.50;99.90;;;;;;5015076;28;20037;-70
2022/04/11 00:33:40;;;;;;;2.30;1.00;;;3.50;99.90;;;;;;5032733;28;20053;-71
2022/04/11 00:36:05;;;;;;;3.40;0.90;;;3.50;99.90;;;;;;5016380;28;20042;-70
2022/04/11 00:38:31;;;;;;;3.88;1.20;;;3.40;99.90;;;;;;4999005;28;20037;-71
2022/04/11 00:40:57;;;;;;;2.80;0.95;;;3.40;99.90;;;;;;5016082;28;20095;-70
2022/04/11 00:43:39;;;;;;;2.85;1.10;;;3.40;99.90;;;;;;5014827;28;20052;-71
2022/04/11 00:46:07;;;;;;;3.60;1.13;;;3.30;99.90;;;;;;4999511;28;20033;-71
2022/04/11 00:48:33;;;;;;;1.85;1.05;;;3.20;99.90;;;;;;5014951;28;20123;-70
2022/04/11 00:51:03;;;;;;;2.72;1.30;;;3.30;99.90;;;;;;5013997;28;20041;-71
2022/04/11 00:53:31;;;;;;;2.60;1.20;;;3.30;99.90;;;;;;4998596;28;20046;-70
2022/04/11 00:55:58;;;;;;;4.57;1.20;;;3.30;99.90;;;;;;4999212;28;20045;-70
2022/04/11 00:58:23;;;;;;;2.25;0.98;;;3.20;99.90;;;;;;4998379;28;20077;-70
2022/04/11 01:00:49;;;;;;;3.50;1.20;;;3.20;99.90;;;;;;5015102;28;20076;-71
2022/04/11 01:03:15;;;;;;;4.70;1.15;;;3.10;99.90;;;;;;5014590;28;20041;-70
2022/04/11 01:05:41;;;;;;;3.25;1.20;;;3.10;99.90;;;;;;4998611;28;20502;-70
2022/04/11 01:08:08;;;;;;;3.90;1.10;;;3.10;99.90;;;;;;5014831;28;20444;-70
2022/04/11 01:10:34;;;;;;;3.00;1.48;;;3.10;99.90;;;;;;4999476;28;20445;-71
2022/04/11 01:13:01;;;;;;;3.75;1.15;;;3.00;99.90;;;;;;5014402;28;20049;-70
2022/04/11 01:15:27;;;;;;;3.40;1.00;;;3.00;99.90;;;;;;5015378;28;20048;-71
2022/04/11 01:17:52;;;;;;;1.77;1.00;;;3.00;99.90;;;;;;5015209;28;20044;-70
2022/04/11 01:20:19;;;;;;;2.33;1.20;;;2.90;99.90;;;;;;5015596;28;20037;-70
2022/04/11 01:22:45;;;;;;;2.85;1.20;;;2.90;99.90;;;;;;4998479;28;20378;-70
2022/04/11 01:25:11;;;;;;;2.85;1.00;;;2.90;99.90;;;;;;4998237;28;20057;-71
2022/04/11 01:27:38;;;;;;;3.58;1.17;;;2.90;99.90;;;;;;4999089;28;20038;-70
2022/04/11 01:30:05;;;;;;;2.63;1.20;;;2.90;99.90;;;;;;5014423;28;20094;-71
2022/04/11 01:32:30;;;;;;;3.33;0.93;;;2.90;99.90;;;;;;5014933;28;20179;-70
2022/04/11 01:34:57;;;;;;;3.25;0.95;;;2.80;99.90;;;;;;4998257;28;20120;-70
2022/04/11 01:37:23;;;;;;;1.95;1.10;;;2.80;99.90;;;;;;5015313;28;20049;-70
2022/04/11 01:39:48;;;;;;;3.03;1.30;;;2.80;99.90;;;;;;4998554;28;20037;-70
2022/04/11 01:42:14;;;;;;;3.28;1.10;;;2.80;99.90;;;;;;4998985;28;20041;-70
2022/04/11 01:44:39;;;;;;;3.60;1.15;;;2.80;99.90;;;;;;4994796;28;20414;-70
2022/04/11 01:47:05;;;;;;;2.70;1.10;;;2.70;99.90;;;;;;4979416;28;20065;-70
2022/04/11 01:49:30;;;;;;;2.13;1.10;;;2.60;99.90;;;;;;5009459;28;20029;-70
2022/04/11 01:51:56;;;;;;;2.63;1.08;;;2.50;99.90;;;;;;5014549;28;20061;-70
2022/04/11 01:54:21;;;;;;;3.38;1.20;;;2.40;99.90;;;;;;5015279;28;20033;-70
2022/04/11 01:56:47;;;;;;;3.03;1.17;;;2.30;99.90;;;;;;5014064;28;20068;-70
2022/04/11 01:59:14;;;;;;;2.80;1.00;;;2.30;99.90;;;;;;4998945;28;20128;-70
2022/04/11 02:01:40;;;;;;;3.25;1.75;;;2.30;99.90;;;;;;5014251;28;20509;-70
2022/04/11 02:04:06;;;;;;;3.92;1.20;;;2.30;99.90;;;;;;5015062;28;20041;-70
2022/04/11 02:06:31;;;;;;;4.45;1.75;;;2.40;99.90;;;;;;5014838;28;20044;-70
2022/04/11 02:08:57;;;;;;;6.47;1.42;;;2.40;99.90;;;;;;5018984;28;20491;-70
2022/04/11 02:11:22;;;;;;;4.13;1.50;;;2.40;99.90;;;;;;5017833;28;20390;-70
2022/04/11 02:13:48;;;;;;;3.80;1.70;;;2.40;99.90;;;;;;5019021;28;20041;-70
2022/04/11 02:16:14;;;;;;;4.82;1.38;;;2.40;99.90;;;;;;5017854;28;20052;-70
2022/04/11 02:18:39;;;;;;;3.63;1.48;;;2.40;99.90;;;;;;5002671;28;20053;-70
2022/04/11 02:21:05;;;;;;;3.33;1.35;;;2.40;99.90;;;;;;5018073;28;20045;-71
2022/04/11 02:23:30;;;;;;;6.22;1.38;;;2.30;99.90;;;;;;5016481;28;20049;-70
2022/04/11 02:25:56;;;;;;;3.70;1.42;;;2.30;99.90;;;;;;5017693;28;20041;-70
2022/04/11 02:28:21;;;;;;;4.75;1.65;;;2.30;99.90;;;;;;5017537;28;20069;-71
2022/04/11 02:30:47;;;;;;;3.55;1.50;;;2.30;99.90;;;;;;5017387;28;20041;-70
2022/04/11 02:33:12;;;;;;;4.25;1.48;;;2.20;99.90;;;;;;5002111;28;20038;-71
2022/04/11 02:35:40;;;;;;;4.30;1.40;;;2.20;99.90;;;;;;5017347;28;20041;-70
2022/04/11 02:38:06;;;;;;;4.53;1.60;;;2.20;99.90;;;;;;5001672;28;20033;-70
2022/04/11 02:40:32;;;;;;;5.68;1.38;;;2.20;99.90;;;;;;5001032;28;20048;-71
2022/04/11 02:42:57;;;;;;;3.80;1.27;;;2.30;99.90;;;;;;5017434;28;20029;-71
2022/04/11 02:45:23;;;;;;;3.70;1.55;;;2.30;99.90;;;;;;5014828;28;20042;-71
2022/04/11 02:47:49;;;;;;;4.03;1.40;;;2.30;99.90;;;;;;4982483;28;20050;-71
2022/04/11 02:50:14;;;;;;;2.75;1.35;;;2.20;99.90;;;;;;4999182;28;20033;-71
2022/04/11 02:52:40;;;;;;;2.38;1.08;;;2.20;99.90;;;;;;5017198;28;20060;-71
2022/04/11 02:55:06;;;;;;;3.17;1.42;;;2.20;99.90;;;;;;5001751;28;20502;-71
2022/04/11 02:57:32;;;;;;;5.70;1.75;;;2.10;99.90;;;;;;5016663;28;20509;-71
2022/04/11 02:59:57;;;;;;;3.47;1.30;;;2.10;99.90;;;;;;5017956;28;20072;-71
2022/04/11 03:02:23;;;;;;;5.45;2.05;;;2.00;99.90;;;;;;5016815;28;20413;-71
2022/04/11 03:04:49;;;;;;;2.63;1.25;;;2.00;99.90;;;;;;5017815;28;20091;-72
2022/04/11 03:07:14;;;;;;;3.20;1.50;;;2.00;99.90;;;;;;5016981;28;20041;-71
2022/04/11 03:09:40;;;;;;;4.50;1.70;;;2.00;99.90;;;;;;5017799;28;20042;-71
2022/04/11 03:12:06;;;;;;;3.80;1.60;;;1.80;99.90;;;;;;5016913;28;20033;-71
2022/04/11 03:14:32;;;;;;;2.42;1.20;;;1.80;99.90;;;;;;5017665;28;20120;-72
2022/04/11 03:16:58;;;;;;;2.13;1.30;;;1.80;99.90;;;;;;5000431;28;20180;-71
2022/04/11 03:19:23;;;;;;;2.38;1.38;;;1.70;99.90;;;;;;5001251;28;20049;-72
2022/04/11 03:21:49;;;;;;;4.43;1.60;;;1.80;99.90;;;;;;5000404;28;20045;-71
2022/04/11 03:24:15;;;;;;;3.72;1.40;;;1.80;99.90;;;;;;5014073;28;20054;-71
2022/04/11 03:26:40;;;;;;;3.38;1.55;;;1.70;99.90;;;;;;4997075;28;20505;-71
2022/04/11 03:29:06;;;;;;;4.13;1.40;;;1.60;99.90;;;;;;5013111;28;20057;-71
2022/04/11 03:31:31;;;;;;;4.68;1.50;;;1.50;99.90;;;;;;5013212;28;20473;-71
2022/04/11 03:33:57;;;;;;;3.08;1.40;;;1.50;99.90;;;;;;4997740;28;20049;-72
2022/04/11 03:36:24;;;;;;;5.00;1.70;;;1.50;99.90;;;;;;4993593;28;20038;-72
2022/04/11 03:38:50;;;;;;;3.75;1.30;;;1.50;99.90;;;;;;4994375;28;20092;-71
2022/04/11 03:41:15;;;;;;;2.85;1.25;;;1.40;99.90;;;;;;5000952;28;20033;-72
2022/04/11 03:43:41;;;;;;;3.63;1.40;;;1.40;99.90;;;;;;5013787;28;20046;-72
2022/04/11 03:46:07;;;;;;;3.22;1.45;;;1.40;99.90;;;;;;5012980;28;20038;-72
2022/04/11 03:48:32;;;;;;;4.35;1.40;;;1.50;99.90;;;;;;4997270;28;20133;-72
2022/04/11 03:50:58;;;;;;;4.15;1.50;;;1.50;99.90;;;;;;4993301;28;20467;-72
2022/04/11 03:53:23;;;;;;;4.07;1.50;;;1.50;99.90;;;;;;4994100;28;20406;-72
2022/04/11 03:55:49;;;;;;;2.90;1.40;;;1.60;99.90;;;;;;5003290;28;20088;-72
2022/04/11 03:58:15;;;;;;;4.40;1.60;;;1.60;99.90;;;;;;5013496;28;20087;-72
2022/04/11 04:00:40;;;;;;;4.85;1.70;;;1.60;99.90;;;;;;4996384;28;20053;-72
2022/04/11 04:03:11;;;;;;;3.55;1.50;;;1.60;99.90;;;;;;4996587;28;20038;-72
2022/04/11 04:05:45;;;;;;;3.90;1.60;;;1.70;99.90;;;;;;5012634;28;20042;-73
2022/04/11 04:08:12;;;;;;;3.03;1.48;;;1.70;99.90;;;;;;4996919;28;20069;-72
2022/04/11 04:10:38;;;;;;;4.78;1.63;;;1.70;99.90;;;;;;4996020;28;20038;-72
2022/04/11 04:13:04;;;;;;;4.75;1.63;;;1.70;99.90;;;;;;4997266;28;20034;-72
2022/04/11 04:15:30;;;;;;;5.57;1.70;;;1.70;99.90;;;;;;4995451;28;20046;-73
2022/04/11 04:17:56;;;;;;;4.60;1.63;;;1.70;99.90;;;;;;5012255;28;20045;-73
2022/04/11 04:20:25;;;;;;;3.63;1.40;;;1.80;99.90;;;;;;5013188;28;20042;-72
2022/04/11 04:22:54;;;;;;;3.83;1.70;;;1.80;99.90;;;;;;4995255;28;20449;-72
2022/04/11 04:25:20;;;;;;;6.80;2.03;;;1.80;99.90;;;;;;5013023;28;20045;-72
2022/04/11 04:27:46;;;;;;;6.00;1.73;;;1.90;99.90;;;;;;5012131;28;20445;-72
2022/04/11 04:30:12;;;;;;;4.13;1.48;;;1.90;99.90;;;;;;5012526;28;20114;-72
2022/04/11 04:32:38;;;;;;;4.60;1.83;;;1.80;99.90;;;;;;4995835;28;20041;-72
2022/04/11 04:35:05;;;;;;;3.65;1.65;;;1.80;99.90;;;;;;5013193;28;20038;-72
2022/04/11 04:37:31;;;;;;;3.20;1.52;;;1.80;99.90;;;;;;4995649;28;20212;-72
2022/04/11 04:39:56;;;;;;;4.50;1.75;;;1.80;99.90;;;;;;5012336;28;20045;-72
2022/04/11 04:42:23;;;;;;;4.07;1.70;;;1.80;99.90;;;;;;4992540;28;20040;-72
2022/04/11 04:44:49;;;;;;;3.75;1.80;;;1.80;99.90;;;;;;4994299;28;20042;-72
2022/04/11 04:47:15;;;;;;;5.38;1.80;;;1.90;99.90;;;;;;5012045;28;20481;-72
2022/04/11 04:49:42;;;;;;;4.35;1.55;;;2.00;99.90;;;;;;4996329;28;20498;-72
2022/04/11 04:52:08;;;;;;;4.85;1.63;;;1.90;99.90;;;;;;5012672;28;20068;-73
2022/04/11 04:54:34;;;;;;;4.60;1.60;;;1.90;99.90;;;;;;4995790;28;20457;-72
2022/04/11 04:57:00;;;;;;;3.67;1.70;;;1.90;99.90;;;;;;4992058;28;20038;-73
2022/04/11 04:59:25;;;;;;;3.90;1.55;;;1.90;99.90;;;;;;4992832;28;20111;-72
2022/04/11 05:01:51;;;;;;;5.70;1.73;;;1.90;99.90;;;;;;4995680;28;20038;-72
2022/04/11 05:04:16;;;;;;;4.68;1.45;;;2.00;99.90;;;;;;5011262;28;20049;-72
2022/04/11 05:06:42;;;;;;;3.15;1.58;;;1.90;99.90;;;;;;5011310;28;20034;-73
2022/04/11 05:09:07;;;;;;;6.32;1.80;;;1.90;99.90;;;;;;5012317;28;20124;-72
2022/04/11 05:11:33;;;;;;;6.05;1.95;;;2.00;99.90;;;;;;5012605;28;20073;-72
2022/04/11 05:13:58;;;;;;;6.57;2.00;;;2.00;99.90;;;;;;5011423;28;20041;-72
2022/04/11 05:16:24;;;;;;;4.97;1.67;;;2.00;99.90;;;;;;5010412;28;20048;-72
2022/04/11 05:18:50;;;;;;;5.30;2.08;;;1.90;99.90;;;;;;4996140;28;20133;-72
2022/04/11 05:21:15;;;;;;;4.82;2.03;;;1.90;99.90;;;;;;5011195;28;20046;-72
2022/04/11 05:23:41;;;;;;;5.10;1.80;;;2.00;99.90;;;;;;5024217;28;20053;-72
2022/04/11 05:26:07;;;;;;;6.35;1.95;;;2.00;99.90;;;;;;5014334;28;20050;-72
2022/04/11 05:28:33;;;;;;;5.18;2.28;;;2.10;99.90;;;;;;5014512;28;20084;-72
2022/04/11 05:31:00;;;;;;;5.35;1.90;;;2.00;99.90;;;;;;5015403;28;20444;-72
2022/04/11 05:33:25;;;;;;;5.47;2.08;;;2.20;99.90;;;;;;5014600;28;20458;-72
2022/04/11 05:35:52;;;;;;;5.18;2.10;;;2.20;99.90;;;;;;5015335;28;20129;-72
2022/04/11 05:38:19;;;;;;;3.28;1.60;;;2.30;99.90;;;;;;5013590;28;20371;-72
2022/04/11 05:40:48;;;;;;;4.82;1.80;;;2.40;99.90;;;;;;5015316;28;20069;-72
2022/04/11 05:43:14;;;;;;;4.22;2.00;;;2.40;99.90;;;;;;5001860;28;20033;-72
2022/04/11 05:45:40;;;;;;;5.10;1.98;;;2.40;99.90;;;;;;5019296;28;20387;-72
2022/04/11 05:48:06;;;;;;;6.05;2.70;;;2.50;99.90;;;;;;5018344;28;20440;-72
2022/04/11 05:50:31;;;;;;;6.72;2.47;;;2.50;99.90;;;;;;5018159;28;20038;-72
2022/04/11 05:52:57;;;;;;;4.78;2.20;;;2.50;99.90;;;;;;5000889;28;20060;-73
2022/04/11 05:55:25;;;;;;;5.38;2.35;;;2.60;99.90;;;;;;5019203;28;20478;-72
2022/04/11 05:57:51;;;;;;;7.05;2.40;;;2.60;99.90;;;;;;5001714;28;20044;-72
2022/04/11 06:00:17;;;;;;;6.30;2.30;;;2.60;99.90;;;;;;5017645;28;20037;-72
2022/04/11 06:02:43;;;;;;;5.97;2.00;;;2.70;99.90;;;;;;5011219;28;20052;-72
2022/04/11 06:05:09;;;;;;;5.40;2.17;;;2.80;99.90;;;;;;4999274;28;20049;-72
2022/04/11 06:07:35;;;;;;;4.07;1.85;;;2.70;99.90;;;;;;5003116;28;20044;-73
2022/04/11 06:10:01;;;;;;;5.00;2.08;;;2.80;99.90;;;;;;5009710;28;20037;-72
2022/04/11 06:12:27;;;;;;;5.43;2.15;;;2.80;99.90;;;;;;5002206;28;20496;-72
2022/04/11 06:14:53;;;;;;;14.13;4.78;;;2.90;99.90;;;;;;5018493;28;20045;-73
2022/04/11 06:17:23;;;;;;;18.77;9.95;;;2.80;99.90;;;;;;5001961;28;20037;-72
2022/04/11 06:19:58;;;;;;;20.58;11.45;;;2.90;99.90;;;;;;5018329;28;20068;-73
2022/04/11 06:22:24;;;;;;;15.45;9.85;;;2.90;99.90;;;;;;4998444;28;20409;-72
2022/04/11 06:24:50;;;;;;;10.43;4.88;;;2.90;99.90;;;;;;4981068;28;20054;-72
2022/04/11 06:27:17;;;;;;;10.48;4.07;;;3.00;99.90;;;;;;4994339;28;20120;-73
2022/04/11 06:29:43;;;;;;;9.38;5.28;;;3.00;99.90;;;;;;4997140;28;20038;-72
2022/04/11 06:32:09;;;;;;;9.05;3.53;;;3.00;99.90;;;;;;4997142;28;20049;-72
2022/04/11 06:34:36;;;;;;;8.65;3.40;;;3.00;99.90;;;;;;4997028;28;20053;-72
2022/04/11 06:37:05;;;;;;;6.47;3.25;;;3.10;99.90;;;;;;5005931;28;20574;-72
2022/04/11 06:39:30;;;;;;;5.97;2.88;;;3.10;99.90;;;;;;5017707;28;20087;-72
2022/04/11 06:41:56;;;;;;;7.00;2.70;;;3.20;99.90;;;;;;5016652;28;20041;-72
2022/04/11 06:44:22;;;;;;;8.93;3.10;;;3.20;99.90;;;;;;5016802;28;20088;-72
2022/04/11 06:46:48;;;;;;;7.43;3.00;;;3.30;99.90;;;;;;5000111;28;20642;-72
2022/04/11 06:49:14;;;;;;;5.75;2.78;;;3.30;99.90;;;;;;5016676;28;20038;-72
2022/04/11 06:51:39;;;;;;;6.18;2.90;;;3.40;99.90;;;;;;5017243;28;20395;-72
2022/04/11 06:54:05;;;;;;;7.53;2.95;;;3.40;99.90;;;;;;4999651;28;20048;-72
2022/04/11 06:56:30;;;;;;;7.05;2.97;;;3.50;99.90;;;;;;5034144;28;20037;-72
2022/04/11 06:58:56;;;;;;;6.93;2.67;;;3.70;99.90;;;;;;5002559;28;20394;-72
2022/04/11 07:01:22;;;;;;;5.75;2.70;;;3.80;99.90;;;;;;5000198;28;20037;-72
2022/04/11 07:03:47;;;;;;;8.02;2.50;;;3.90;99.90;;;;;;5013871;28;20040;-72
2022/04/11 07:06:13;;;;;;;6.40;3.00;;;4.10;99.90;;;;;;4997109;28;20040;-73
2022/04/11 07:08:39;;;;;;;7.57;3.33;;;4.20;99.90;;;;;;4998431;28;20396;-72
2022/04/11 07:11:07;;;;;;;7.80;3.13;;;4.10;99.90;;;;;;4998709;28;20555;-73
2022/04/11 07:13:34;;;;;;;6.97;3.08;;;4.10;99.90;;;;;;5011827;28;20030;-72
2022/04/11 07:16:01;;;;;;;9.77;2.97;;;4.20;99.90;;;;;;4995786;28;20061;-72
2022/04/11 07:18:27;;;;;;;8.85;3.40;;;4.20;99.90;;;;;;4993994;28;20045;-72
2022/04/11 07:20:56;;;;;;;10.32;3.92;;;4.20;99.90;;;;;;5009350;28;20048;-72
2022/04/11 07:23:22;;;;;;;6.40;2.97;;;4.30;99.90;;;;;;4958896;28;1084205;-71
2022/04/11 07:25:48;;;;;;;5.45;2.25;;;4.30;99.90;;;;;;5017565;28;20045;-72
2022/04/11 07:28:14;;;;;;;10.07;3.83;;;4.50;99.90;;;;;;5016685;28;20041;-72
2022/04/11 07:30:40;;;;;;;8.90;3.38;;;4.50;99.90;;;;;;5017119;28;20049;-73
2022/04/11 07:33:08;;;;;;;9.05;3.72;;;4.60;99.90;;;;;;5000935;28;20404;-73
2022/04/11 07:35:33;;;;;;;7.68;3.35;;;4.80;99.90;;;;;;5000416;28;20049;-73
2022/04/11 07:38:00;;;;;;;8.45;3.70;;;4.90;99.90;;;;;;5016798;28;20396;-73
2022/04/11 07:40:26;;;;;;;9.20;4.03;;;5.00;99.90;;;;;;5000526;28;20041;-72
2022/04/11 07:42:52;;;;;;;9.88;4.40;;;5.00;99.90;;;;;;5016550;28;20053;-72
2022/04/11 07:45:22;;;;;;;7.35;3.70;;;5.00;99.90;;;;;;5016307;28;20045;-73
2022/04/11 07:47:48;;;;;;;7.93;4.65;;;5.10;99.90;;;;;;5017194;28;20059;-73
2022/04/11 07:50:14;;;;;;;7.30;4.05;;;5.20;99.90;;;;;;5016708;28;20120;-73
2022/04/11 07:52:43;;;;;;;8.80;4.55;;;5.20;99.90;;;;;;5016505;28;20041;-73
2022/04/11 07:55:11;;;;;;;8.50;4.35;;;5.30;99.90;;;;;;5016711;28;20125;-72
2022/04/11 07:57:36;;;;;;;9.30;4.82;;;5.40;99.90;;;;;;5008648;28;20049;-73
2022/04/11 08:00:06;;;;;;;8.52;4.20;;;5.40;99.90;;;;;;4996929;28;20453;-72
2022/04/11 08:02:32;;;;;;;8.38;3.75;;;5.60;99.90;;;;;;4993374;28;20052;-73
2022/04/11 08:05:01;;;;;;;8.82;3.80;;;5.70;99.90;;;;;;4999010;28;20508;-73
2022/04/11 08:07:30;;;;;;;9.45;3.95;;;5.70;99.90;;;;;;4999864;28;20038;-73
2022/04/11 08:09:55;;;;;;;7.70;4.00;;;5.80;99.90;;;;;;5000388;28;20040;-73
2022/04/11 08:12:21;;;;;;;7.57;3.53;;;5.80;99.90;;;;;;4999715;28;20045;-73
2022/04/11 08:14:47;;;;;;;9.57;4.00;;;5.90;99.90;;;;;;5016121;28;20493;-73
2022/04/11 08:17:13;;;;;;;8.95;4.10;;;6.10;99.90;;;;;;5016594;28;20049;-72
2022/04/11 08:19:38;;;;;;;9.90;3.70;;;6.20;99.90;;;;;;5016052;28;20099;-75
2022/04/11 08:22:05;;;;;;;7.32;4.55;;;6.40;99.90;;;;;;5016328;28;20445;-74
2022/04/11 08:24:30;;;;;;;8.55;3.67;;;6.50;99.90;;;;;;4999546;28;20057;-74
2022/04/11 08:26:58;;;;;;;8.13;3.50;;;6.70;99.90;;;;;;5015855;28;20056;-75
2022/04/11 08:29:24;;;;;;;6.85;3.70;;;6.70;99.90;;;;;;5016240;28;20140;-74
2022/04/11 08:31:50;;;;;;;10.32;3.80;;;6.80;99.90;;;;;;4999628;28;20053;-74
2022/04/11 08:34:15;;;;;;;9.57;3.30;;;6.80;99.90;;;;;;4999339;28;20038;-74
2022/04/11 08:36:43;;;;;;;7.32;3.28;;;6.90;99.90;;;;;;5015808;28;20060;-74
2022/04/11 08:39:09;;;;;;;8.02;3.30;;;7.10;99.90;;;;;;4999476;28;20087;-71
2022/04/11 08:41:36;;;;;;;7.57;3.20;;;7.30;99.90;;;;;;4999588;28;20041;-71
2022/04/11 08:44:04;;;;;;;8.27;3.38;;;7.40;99.90;;;;;;5015605;28;20077;-72
2022/04/11 08:46:31;;;;;;;7.93;2.95;;;7.60;99.90;;;;;;5015796;28;20038;-72
2022/04/11 08:48:59;;;;;;;6.07;2.90;;;7.80;99.90;;;;;;5015690;28;20069;-71
2022/04/11 08:51:25;;;;;;;6.03;3.05;;;8.00;99.90;;;;;;5015646;28;20042;-71
2022/04/11 08:53:52;;;;;;;5.93;2.63;;;8.10;99.90;;;;;;4985314;28;20040;-71
2022/04/11 08:56:17;;;;;;;6.75;3.00;;;8.30;99.90;;;;;;4995903;28;20077;-71
2022/04/11 08:58:43;;;;;;;7.35;3.22;;;8.50;99.90;;;;;;5009674;28;20068;-71
2022/04/11 09:01:08;;;;;;;8.75;2.90;;;8.50;99.90;;;;;;5011718;28;20041;-71
2022/04/11 09:03:34;;;;;;;5.63;2.85;;;8.70;99.90;;;;;;4999428;28;20501;-71
2022/04/11 09:06:08;;;;;;;8.75;2.75;;;8.80;99.90;;;;;;4998626;28;20124;-71
2022/04/11 09:08:42;;;;;;;7.47;2.90;;;8.90;99.90;;;;;;4996058;28;20045;-72
2022/04/11 09:11:09;;;;;;;6.90;2.90;;;9.00;99.90;;;;;;5010790;28;20029;-71
2022/04/11 09:13:51;;;;;;;8.10;3.40;;;9.10;99.90;;;;;;4997772;28;20029;-71
2022/04/11 09:16:17;;;;;;;;;;;9.10;99.90;;;;;;4995512;28;20069;-71
2022/04/11 09:18:52;;;;;;;7.53;3.28;;;9.20;99.90;;;;;;4998961;28;19964;-72
2022/04/11 09:21:18;;;;;;;8.23;3.45;;;9.30;99.90;;;;;;5015235;28;20509;-72
2022/04/11 09:23:44;;;;;;;8.25;3.05;;;9.50;99.90;;;;;;5012715;28;20073;-72
2022/04/11 09:26:21;;;;;;;8.20;3.75;;;9.60;99.90;;;;;;5014117;28;20068;-71
2022/04/11 09:29:00;;;;;;;6.57;2.67;;;9.90;99.90;;;;;;4994538;28;20125;-71
2022/04/11 09:31:26;;;;;;;6.88;2.75;;;10.00;99.90;;;;;;5013917;28;20033;-72
2022/04/11 09:33:52;;;;;;;11.55;3.78;;;10.10;99.90;;;;;;5015369;28;20042;-72
2022/04/11 09:36:20;;;;;;;8.65;2.90;;;10.20;99.90;;;;;;4995678;28;20040;-72
2022/04/11 09:38:59;;;;;;;6.82;3.00;;;10.20;99.90;;;;;;5016056;28;20103;-72
2022/04/11 09:41:34;;;;;;;5.65;2.38;;;10.30;99.90;;;;;;5029450;28;20037;-72
2022/04/11 09:44:21;;;;;;;6.65;2.90;;;10.40;99.90;;;;;;4998354;28;20044;-72
2022/04/11 09:46:46;;;;;;;8.25;2.90;;;10.60;99.90;;;;;;5014804;28;20045;-72
2022/04/11 09:49:12;;;;;;;7.85;2.65;;;10.70;99.90;;;;;;5013586;28;20092;-72
2022/04/11 09:52:13;;;;;;;7.72;2.70;;;10.80;96.90;;;;;;5012721;28;20385;-73
2022/04/11 09:54:47;;;;;;;5.38;2.30;;;10.80;99.90;;;;;;4995185;28;20549;-72
2022/04/11 09:57:15;;;;;;;6.15;2.30;;;11.00;99.90;;;;;;5007846;28;20042;-72
2022/04/11 09:59:43;;;;;;;4.13;2.10;;;11.00;93.30;;;;;;4998596;28;20383;-72
2022/04/11 10:02:10;;;;;;;7.38;2.70;;;11.00;92.10;;;;;;5001530;28;20045;-73
2022/04/11 10:04:37;;;;;;;3.83;1.73;;;11.20;97.40;;;;;;5009548;28;20041;-72
2022/04/11 10:07:04;;;;;;;5.72;1.83;;;11.30;95.30;;;;;;4998213;28;20410;-72
2022/04/11 10:09:30;;;;;;;5.68;1.65;;;11.40;92.70;;;;;;5012769;28;20036;-72
2022/04/11 10:11:56;;;;;;;4.88;1.88;;;11.50;93.40;;;;;;4996026;28;20068;-72
2022/04/11 10:14:26;;;;;;;6.40;2.20;;;11.50;89.40;;;;;;5009736;28;20029;-72
2022/04/11 10:16:57;;;;;;;6.28;2.20;;;11.40;91.80;;;;;;5014404;28;20513;-72
2022/04/11 10:19:29;;;;;;;6.07;3.22;;;11.60;91.00;;;;;;5013557;28;20048;-73
2022/04/11 10:22:03;;;;;;;7.03;2.20;;;11.50;92.40;;;;;;5014566;28;20087;-72
2022/04/11 10:24:34;;;;;;;5.80;2.38;;;11.80;89.70;;;;;;5013569;28;20088;-72
2022/04/11 10:27:25;;;;;;;6.55;2.25;;;11.80;88.50;;;;;;5014756;28;20116;-73
2022/04/11 10:29:56;;;;;;;5.45;2.25;;;11.80;84.00;;;;;;4992776;28;20104;-72
2022/04/11 10:32:29;;;;;;;6.38;2.60;;;11.80;81.50;;;;;;4998226;28;20113;-72
2022/04/11 10:35:01;;;;;;;6.93;2.17;;;11.70;80.30;;;;;;5017303;28;20045;-72
2022/04/11 10:37:39;;;;;;;6.03;2.33;;;11.80;80.20;;;;;;4998281;28;20096;-72
2022/04/11 10:40:17;;;;;;;5.90;2.22;;;11.80;82.20;;;;;;4987357;28;20037;-72
2022/04/11 10:43:05;;;;;;;7.60;3.10;;;11.90;70.60;;;;;;5017157;28;20041;-72
2022/04/11 10:45:36;;;;;;;6.30;2.17;;;12.00;78.20;;;;;;5000392;28;20052;-72
2022/04/11 10:48:03;;;;;;;6.73;2.57;;;12.00;77.50;;;;;;5016974;28;20083;-72
2022/04/11 10:50:37;;;;;;;7.78;3.00;;;12.10;81.60;;;;;;5000459;28;20068;-72
2022/04/11 10:53:24;;;;;;;6.85;2.78;;;12.10;81.40;;;;;;5014440;28;20041;-72
2022/04/11 10:55:59;;;;;;;7.20;3.05;;;12.10;75.30;;;;;;5014970;28;20081;-72
2022/04/11 10:58:43;;;;;;;6.93;3.10;;;12.10;80.90;;;;;;5006567;28;20493;-72
2022/04/11 11:01:10;;;;;;;8.35;3.08;;;12.30;76.20;;;;;;5017654;28;20440;-72
2022/04/11 11:03:39;;;;;;;6.90;2.60;;;12.30;78.20;;;;;;5001007;28;20095;-72
2022/04/11 11:06:19;;;;;;;6.72;2.53;;;12.30;75.70;;;;;;5017122;28;20087;-72
2022/04/11 11:08:45;;;;;;;6.60;2.70;;;12.30;77.20;;;;;;5000923;28;20041;-72
2022/04/11 11:11:23;;;;;;;7.90;3.60;;;12.20;77.80;;;;;;5016225;28;20076;-72
2022/04/11 11:13:50;;;;;;;7.97;3.42;;;12.40;74.10;;;;;;5017220;28;20080;-72
2022/04/11 11:16:17;;;;;;;5.93;2.80;;;12.40;74.70;;;;;;4999631;28;20040;-72
2022/04/11 11:18:46;;;;;;;7.38;2.90;;;12.50;76.00;;;;;;4999073;28;20461;-72
2022/04/11 11:21:13;;;;;;;8.25;2.75;;;12.60;75.50;;;;;;5017477;28;20367;-72
2022/04/11 11:23:38;;;;;;;6.20;2.58;;;12.50;69.60;;;;;;5015105;28;20132;-72
2022/04/11 11:26:12;;;;;;;7.20;3.38;;;12.50;75.40;;;;;;5014046;28;20045;-72
2022/04/11 11:28:41;;;;;;;8.05;3.40;;;12.50;64.10;;;;;;4992061;28;20482;-72
2022/04/11 11:31:07;;;;;;;5.38;2.60;;;12.60;73.10;;;;;;5009864;28;20042;-72
2022/04/11 11:33:32;;;;;;;9.20;3.22;;;12.70;72.70;;;;;;5000625;28;20048;-73
2022/04/11 11:35:59;;;;;;;8.02;3.17;;;12.70;73.30;;;;;;5016079;28;20040;-72
2022/04/11 11:38:31;;;;;;;7.80;3.38;;;12.70;66.80;;;;;;5012707;28;20489;-72
2022/04/11 11:40:58;;;;;;;;;;;12.50;67.20;;;;;;5016615;28;20042;-72
2022/04/11 11:43:24;;;;;;;7.78;2.60;;;12.50;66.90;;;;;;5015394;28;20391;-73
2022/04/11 11:45:51;;;;;;;7.05;2.78;;;12.70;70.90;;;;;;5000560;28;20077;-72
2022/04/11 11:48:25;;;;;;;8.15;2.92;;;12.90;62.90;;;;;;5014391;28;20033;-73
2022/04/11 11:50:52;;;;;;;6.25;2.80;;;12.70;66.10;;;;;;5015593;28;20500;-72
2022/04/11 11:53:18;;;;;;;6.65;3.03;;;12.80;68.90;;;;;;4998677;28;20037;-72
2022/04/11 11:55:58;;;;;;;7.47;2.85;;;12.60;66.20;;;;;;5016591;28;20052;-75
2022/04/11 11:58:35;;;;;;;5.55;2.70;;;12.60;68.90;;;;;;5015022;28;20378;-73
2022/04/11 12:01:01;;;;;;;7.03;3.28;;;12.70;70.60;;;;;;5016128;28;20041;-73
2022/04/11 12:06:10;;;;;;;6.47;3.10;;;12.90;66.70;;;;;;5015322;28;20053;-72
2022/04/11 12:08:36;;;;;;;7.68;3.28;;;12.70;67.30;;;;;;5012923;28;20516;-73
2022/04/11 12:11:02;;;;;;;9.57;3.05;;;12.70;65.80;;;;;;5016337;28;20037;-73
2022/04/11 12:13:33;;;;;;;8.57;3.00;;;12.90;65.70;;;;;;5014469;28;20052;-73
2022/04/11 12:16:15;;;;;;;7.30;2.90;;;12.90;69.20;;;;;;4994681;28;20131;-73
2022/04/11 12:18:53;;;;;;;7.68;3.20;;;12.90;69.20;;;;;;5015397;28;20120;-73
2022/04/11 12:21:29;;;;;;;8.65;3.75;;;12.90;66.90;;;;;;5016638;28;20508;-73
2022/04/11 12:23:54;;;;;;;9.43;3.30;;;13.00;68.50;;;;;;5015625;28;20060;-73
2022/04/11 12:26:34;;;;;;;7.50;3.53;;;13.00;67.40;;;;;;5014155;28;20045;-73
2022/04/11 12:29:10;;;;;;;8.10;4.28;;;13.00;65.80;;;;;;5008204;28;20509;-73
2022/04/11 12:31:37;;;;;;;7.93;3.40;;;12.90;60.80;;;;;;4999009;28;20457;-73
2022/04/11 12:34:15;;;;;;;9.38;3.40;;;13.00;60.60;;;;;;5015514;28;20060;-73
2022/04/11 12:37:01;;;;;;;8.15;3.40;;;13.10;65.00;;;;;;4981100;28;20041;-73
2022/04/11 12:39:27;;;;;;;7.32;3.42;;;13.10;62.70;;;;;;4996498;28;20046;-73
2022/04/11 12:41:52;;;;;;;9.10;4.00;;;13.00;64.40;;;;;;5011101;28;20160;-73
2022/04/11 12:44:19;;;;;;;8.68;3.70;;;13.00;62.30;;;;;;4998255;28;20048;-73
2022/04/11 12:46:56;;;;;;;9.55;3.67;;;13.00;64.40;;;;;;4991065;28;20065;-73
2022/04/11 12:49:23;;;;;;;8.50;3.83;;;13.10;67.20;;;;;;4990491;28;20140;-73
2022/04/11 12:52:04;;;;;;;8.82;3.80;;;13.00;64.10;;;;;;4991529;28;20033;-73
2022/04/11 12:54:40;;;;;;;7.75;3.83;;;13.10;66.20;;;;;;5013904;28;20052;-73
2022/04/11 12:57:12;;;;;;;8.10;3.28;;;13.00;58.70;;;;;;5010668;28;20038;-74
2022/04/11 12:59:42;;;;;;;9.25;3.72;;;13.20;63.60;;;;;;4995673;28;20189;-73
2022/04/11 13:02:14;;;;;;;7.97;3.70;;;13.20;63.50;;;;;;5001187;28;20044;-73